sensor_id;sensor_type;location;lat;lon;timestamp;pressure;altitude;pressure_sealevel;temperature;humidity
21944;BME280;11136;48.778;9.126;2023-12-22T00:00:03;96078.88;;;7.26;75.56
21944;BME280;11136;48.778;9.126;2023-12-22T00:02:29;96192.56;;;7.86;75.66
21944;BME280;11136;48.778;9.126;2023-12-22T00:04:54;96008.34;;;6.80;76.25
21944;BME280;11136;48.778;9.126;2023-12-22T00:07:20;96108.91;;;7.33;76.38
21944;BME280;11136;48.778;9.126;2023-12-22T00:09:45;96195.50;;;8.04;77.04
21944;BME280;11136;48.778;9.126;2023-12-22T00:12:10;96017.16;;;6.98;76.93
21944;BME280;11136;48.778;9.126;2023-12-22T00:14:36;96206.44;;;8.17;76.29
21944;BME280;11136;48.778;9.126;2023-12-22T00:17:02;96072.41;;;7.44;77.17
21944;BME280;11136;48.778;9.126;2023-12-22T00:19:28;95959.91;;;6.69;77.53
21944;BME280;11136;48.778;9.126;2023-12-22T00:21:53;96036.94;;;7.30;77.28
21944;BME280;11136;48.778;9.126;2023-12-22T00:24:18;96022.09;;;7.35;77.58
21944;BME280;11136;48.778;9.126;2023-12-22T00:26:43;96083.31;;;7.68;77.34
21944;BME280;11136;48.778;9.126;2023-12-22T00:29:09;96187.31;;;8.45;77.15
21944;BME280;11136;48.778;9.126;2023-12-22T00:31:34;96030.56;;;7.47;76.70
21944;BME280;11136;48.778;9.126;2023-12-22T00:33:59;96178.03;;;8.44;76.74
21944;BME280;11136;48.778;9.126;2023-12-22T00:36:26;96136.81;;;7.92;76.81
21944;BME280;11136;48.778;9.126;2023-12-22T00:38:51;96172.06;;;7.98;76.36
21944;BME280;11136;48.778;9.126;2023-12-22T00:41:16;96130.13;;;7.45;76.16
21944;BME280;11136;48.778;9.126;2023-12-22T00:43:42;96113.69;;;7.49;76.20
21944;BME280;11136;48.778;9.126;2023-12-22T00:46:07;96212.56;;;8.14;76.12
21944;BME280;11136;48.778;9.126;2023-12-22T00:48:32;96280.41;;;8.41;76.41
21944;BME280;11136;48.778;9.126;2023-12-22T00:50:57;95963.31;;;6.45;76.66
21944;BME280;11136;48.778;9.126;2023-12-22T00:53:23;96039.63;;;6.93;76.30
21944;BME280;11136;48.778;9.126;2023-12-22T00:55:48;96202.56;;;7.89;76.44
21944;BME280;11136;48.778;9.126;2023-12-22T00:58:13;96256.41;;;8.08;76.35
21944;BME280;11136;48.778;9.126;2023-12-22T01:00:39;96267.59;;;8.29;77.14
21944;BME280;11136;48.778;9.126;2023-12-22T01:03:04;96098.88;;;7.19;76.44
21944;BME280;11136;48.778;9.126;2023-12-22T01:05:29;96256.34;;;8.32;76.49
21944;BME280;11136;48.778;9.126;2023-12-22T01:07:54;96026.75;;;6.84;76.24
21944;BME280;11136;48.778;9.126;2023-12-22T01:10:20;95995.56;;;6.58;76.21
21944;BME280;11136;48.778;9.126;2023-12-22T01:12:46;95985.84;;;6.63;76.00
21944;BME280;11136;48.778;9.126;2023-12-22T01:15:11;96197.44;;;7.89;75.95
21944;BME280;11136;48.778;9.126;2023-12-22T01:17:37;96034.31;;;6.96;76.29
21944;BME280;11136;48.778;9.126;2023-12-22T01:20:02;96064.25;;;7.17;76.47
21944;BME280;11136;48.778;9.126;2023-12-22T01:22:28;96061.41;;;6.97;75.62
21944;BME280;11136;48.778;9.126;2023-12-22T01:24:53;96104.78;;;7.20;75.90
21944;BME280;11136;48.778;9.126;2023-12-22T01:27:18;96058.56;;;7.02;75.31
21944;BME280;11136;48.778;9.126;2023-12-22T01:29:45;96265.28;;;8.15;75.70
21944;BME280;11136;48.778;9.126;2023-12-22T01:32:10;96134.91;;;7.50;75.55
21944;BME280;11136;48.778;9.126;2023-12-22T01:34:35;96080.22;;;7.19;75.35
21944;BME280;11136;48.778;9.126;2023-12-22T01:37:00;96064.00;;;7.09;75.07
21944;BME280;11136;48.778;9.126;2023-12-22T01:39:26;96231.00;;;8.07;74.78
21944;BME280;11136;48.778;9.126;2023-12-22T01:41:51;96046.06;;;6.75;73.75
21944;BME280;11136;48.778;9.126;2023-12-22T01:44:17;96086.88;;;6.97;73.63
21944;BME280;11136;48.778;9.126;2023-12-22T01:46:42;96240.53;;;8.05;73.90
21944;BME280;11136;48.778;9.126;2023-12-22T01:49:07;96189.06;;;7.64;73.09
21944;BME280;11136;48.778;9.126;2023-12-22T01:51:34;96253.16;;;8.06;73.49
21944;BME280;11136;48.778;9.126;2023-12-22T01:54:01;96230.16;;;7.84;72.61
21944;BME280;11136;48.778;9.126;2023-12-22T01:56:27;96172.00;;;7.54;72.50
21944;BME280;11136;48.778;9.126;2023-12-22T01:58:55;96202.31;;;7.34;72.89
21944;BME280;11136;48.778;9.126;2023-12-22T02:01:23;96191.13;;;7.59;72.22
21944;BME280;11136;48.778;9.126;2023-12-22T02:03:49;96190.13;;;7.27;72.07
21944;BME280;11136;48.778;9.126;2023-12-22T02:06:18;96224.59;;;7.79;71.33
21944;BME280;11136;48.778;9.126;2023-12-22T02:08:46;96261.88;;;8.04;71.71
21944;BME280;11136;48.778;9.126;2023-12-22T02:11:11;96260.13;;;8.04;71.81
21944;BME280;11136;48.778;9.126;2023-12-22T02:13:36;96238.75;;;7.83;71.79
21944;BME280;11136;48.778;9.126;2023-12-22T02:16:10;96240.00;;;7.77;71.22
21944;BME280;11136;48.778;9.126;2023-12-22T02:18:38;96168.50;;;7.20;71.23
21944;BME280;11136;48.778;9.126;2023-12-22T02:21:04;96278.47;;;7.98;70.99
21944;BME280;11136;48.778;9.126;2023-12-22T02:23:29;96152.84;;;7.13;71.49
21944;BME280;11136;48.778;9.126;2023-12-22T02:26:12;96241.03;;;7.75;70.92
21944;BME280;11136;48.778;9.126;2023-12-22T02:28:42;96223.59;;;7.57;71.29
21944;BME280;11136;48.778;9.126;2023-12-22T02:31:17;96259.25;;;7.81;70.71
21944;BME280;11136;48.778;9.126;2023-12-22T02:33:47;96339.13;;;7.94;70.79
21944;BME280;11136;48.778;9.126;2023-12-22T02:36:15;96139.53;;;6.86;70.66
21944;BME280;11136;48.778;9.126;2023-12-22T02:38:40;96198.25;;;7.32;70.38
21944;BME280;11136;48.778;9.126;2023-12-22T02:41:07;96229.09;;;7.75;70.10
21944;BME280;11136;48.778;9.126;2023-12-22T02:43:33;96180.06;;;7.36;70.38
21944;BME280;11136;48.778;9.126;2023-12-22T02:45:59;96144.16;;;7.04;71.18
21944;BME280;11136;48.778;9.126;2023-12-22T02:48:24;96183.19;;;7.40;70.73
21944;BME280;11136;48.778;9.126;2023-12-22T02:50:49;95346.31;;;2.27;69.95
21944;BME280;11136;48.778;9.126;2023-12-22T02:53:14;96306.78;;;8.06;69.34
21944;BME280;11136;48.778;9.126;2023-12-22T02:55:40;96169.28;;;7.44;69.36
21944;BME280;11136;48.778;9.126;2023-12-22T02:58:05;96195.94;;;7.40;69.25
21944;BME280;11136;48.778;9.126;2023-12-22T03:00:30;96237.91;;;7.82;69.24
21944;BME280;11136;48.778;9.126;2023-12-22T03:02:55;96287.06;;;8.08;68.75
21944;BME280;11136;48.778;9.126;2023-12-22T03:05:21;96027.22;;;6.54;68.71
21944;BME280;11136;48.778;9.126;2023-12-22T03:07:46;96159.09;;;7.44;68.63
21944;BME280;11136;48.778;9.126;2023-12-22T03:10:11;96262.22;;;8.10;68.72
21944;BME280;11136;48.778;9.126;2023-12-22T03:12:37;96247.50;;;8.14;69.03
21944;BME280;11136;48.778;9.126;2023-12-22T03:15:02;96273.25;;;8.11;68.69
21944;BME280;11136;48.778;9.126;2023-12-22T03:17:28;96213.81;;;7.86;69.26
21944;BME280;11136;48.778;9.126;2023-12-22T03:19:53;96127.19;;;7.27;68.94
21944;BME280;11136;48.778;9.126;2023-12-22T03:22:18;96002.97;;;6.61;67.85
21944;BME280;11136;48.778;9.126;2023-12-22T03:24:44;96171.41;;;7.50;67.81
21944;BME280;11136;48.778;9.126;2023-12-22T03:27:09;96151.44;;;7.33;67.37
21944;BME280;11136;48.778;9.126;2023-12-22T03:29:34;96121.91;;;7.06;67.09
21944;BME280;11136;48.778;9.126;2023-12-22T03:32:00;96259.78;;;8.09;67.38
21944;BME280;11136;48.778;9.126;2023-12-22T03:34:25;95871.81;;;5.37;66.27
21944;BME280;11136;48.778;9.126;2023-12-22T03:36:51;96075.38;;;6.81;67.29
21944;BME280;11136;48.778;9.126;2023-12-22T03:39:16;96036.53;;;6.66;67.25
21944;BME280;11136;48.778;9.126;2023-12-22T03:41:41;96077.59;;;6.85;66.48
21944;BME280;11136;48.778;9.126;2023-12-22T03:44:07;96310.28;;;8.16;66.70
21944;BME280;11136;48.778;9.126;2023-12-22T03:46:32;96259.38;;;7.91;67.07
21944;BME280;11136;48.778;9.126;2023-12-22T03:48:58;96132.75;;;6.97;67.85
21944;BME280;11136;48.778;9.126;2023-12-22T03:51:23;96197.84;;;7.60;66.75
21944;BME280;11136;48.778;9.126;2023-12-22T03:53:49;96331.31;;;8.20;67.78
21944;BME280;11136;48.778;9.126;2023-12-22T03:56:14;96170.13;;;7.21;67.90
21944;BME280;11136;48.778;9.126;2023-12-22T03:58:39;96299.47;;;8.02;69.50
21944;BME280;11136;48.778;9.126;2023-12-22T04:01:04;96105.34;;;6.77;70.14
21944;BME280;11136;48.778;9.126;2023-12-22T04:03:33;96254.34;;;7.67;70.43
21944;BME280;11136;48.778;9.126;2023-12-22T04:06:01;96324.69;;;7.82;71.31
21944;BME280;11136;48.778;9.126;2023-12-22T04:08:26;96254.44;;;7.30;71.18
21944;BME280;11136;48.778;9.126;2023-12-22T04:10:52;96160.88;;;6.72;72.10
21944;BME280;11136;48.778;9.126;2023-12-22T04:13:17;96100.13;;;6.31;71.96
21944;BME280;11136;48.778;9.126;2023-12-22T04:15:42;96142.22;;;6.48;73.16
21944;BME280;11136;48.778;9.126;2023-12-22T04:18:09;96170.66;;;6.41;73.17
21944;BME280;11136;48.778;9.126;2023-12-22T04:20:34;96153.50;;;6.56;73.94
21944;BME280;11136;48.778;9.126;2023-12-22T04:22:59;96224.69;;;6.94;74.67
21944;BME280;11136;48.778;9.126;2023-12-22T04:25:24;96248.19;;;7.11;74.60
21944;BME280;11136;48.778;9.126;2023-12-22T04:27:53;96314.94;;;7.16;74.92
21944;BME280;11136;48.778;9.126;2023-12-22T04:30:19;96269.06;;;7.16;74.72
21944;BME280;11136;48.778;9.126;2023-12-22T04:32:44;96173.59;;;6.48;74.59
21944;BME280;11136;48.778;9.126;2023-12-22T04:35:09;96258.13;;;6.90;74.57
21944;BME280;11136;48.778;9.126;2023-12-22T04:37:35;96330.38;;;7.38;75.34
21944;BME280;11136;48.778;9.126;2023-12-22T04:40:00;96056.34;;;5.76;74.83
21944;BME280;11136;48.778;9.126;2023-12-22T04:42:26;96324.25;;;7.41;74.07
21944;BME280;11136;48.778;9.126;2023-12-22T04:44:51;96332.00;;;7.39;74.51
21944;BME280;11136;48.778;9.126;2023-12-22T04:47:17;96290.03;;;7.19;73.20
21944;BME280;11136;48.778;9.126;2023-12-22T04:49:42;96165.34;;;6.44;73.48
21944;BME280;11136;48.778;9.126;2023-12-22T04:52:07;96250.63;;;6.75;72.72
21944;BME280;11136;48.778;9.126;2023-12-22T04:54:33;96300.47;;;7.16;72.64
21944;BME280;11136;48.778;9.126;2023-12-22T04:56:58;96184.59;;;6.49;71.93
21944;BME280;11136;48.778;9.126;2023-12-22T04:59:23;96170.72;;;6.53;71.83
21944;BME280;11136;48.778;9.126;2023-12-22T05:01:48;96322.81;;;7.49;72.48
21944;BME280;11136;48.778;9.126;2023-12-22T05:04:14;96283.72;;;7.25;71.96
21944;BME280;11136;48.778;9.126;2023-12-22T05:06:39;96223.63;;;7.10;71.18
21944;BME280;11136;48.778;9.126;2023-12-22T05:09:04;96284.69;;;7.35;71.32
21944;BME280;11136;48.778;9.126;2023-12-22T05:11:30;96340.69;;;7.60;71.08
21944;BME280;11136;48.778;9.126;2023-12-22T05:13:55;96366.78;;;7.64;70.36
21944;BME280;11136;48.778;9.126;2023-12-22T05:16:20;96377.59;;;7.67;70.72
21944;BME280;11136;48.778;9.126;2023-12-22T05:18:46;96341.69;;;7.71;70.23
21944;BME280;11136;48.778;9.126;2023-12-22T05:21:12;96283.28;;;7.31;69.98
21944;BME280;11136;48.778;9.126;2023-12-22T05:23:38;96383.69;;;7.78;69.95
21944;BME280;11136;48.778;9.126;2023-12-22T05:26:03;96284.00;;;7.33;69.92
21944;BME280;11136;48.778;9.126;2023-12-22T05:28:29;96265.81;;;7.14;69.86
21944;BME280;11136;48.778;9.126;2023-12-22T05:30:54;96367.59;;;7.88;70.71
21944;BME280;11136;48.778;9.126;2023-12-22T05:33:19;96369.34;;;7.88;70.14
21944;BME280;11136;48.778;9.126;2023-12-22T05:35:44;96319.38;;;7.61;70.08
21944;BME280;11136;48.778;9.126;2023-12-22T05:38:10;96205.44;;;6.90;70.75
21944;BME280;11136;48.778;9.126;2023-12-22T05:40:35;96380.09;;;7.56;71.17
21944;BME280;11136;48.778;9.126;2023-12-22T05:43:00;96311.97;;;7.46;71.13
21944;BME280;11136;48.778;9.126;2023-12-22T05:45:25;96375.78;;;7.70;71.33
21944;BME280;11136;48.778;9.126;2023-12-22T05:47:51;96327.59;;;7.41;70.97
21944;BME280;11136;48.778;9.126;2023-12-22T05:50:16;96373.94;;;7.72;71.04
21944;BME280;11136;48.778;9.126;2023-12-22T05:52:42;96391.44;;;7.52;70.51
21944;BME280;11136;48.778;9.126;2023-12-22T05:55:09;96260.56;;;7.04;70.49
21944;BME280;11136;48.778;9.126;2023-12-22T05:57:34;96270.47;;;7.20;69.12
21944;BME280;11136;48.778;9.126;2023-12-22T05:59:59;96378.91;;;7.97;68.95
21944;BME280;11136;48.778;9.126;2023-12-22T06:02:25;96406.75;;;8.00;68.65
21944;BME280;11136;48.778;9.126;2023-12-22T06:04:50;96053.91;;;6.00;67.81
21944;BME280;11136;48.778;9.126;2023-12-22T06:07:15;96252.16;;;7.15;67.78
21944;BME280;11136;48.778;9.126;2023-12-22T06:09:41;96359.84;;;7.66;67.50
21944;BME280;11136;48.778;9.126;2023-12-22T06:12:06;96299.56;;;7.41;67.81
21944;BME280;11136;48.778;9.126;2023-12-22T06:14:32;96223.94;;;6.81;67.88
21944;BME280;11136;48.778;9.126;2023-12-22T06:16:57;96419.03;;;8.19;67.23
21944;BME280;11136;48.778;9.126;2023-12-22T06:19:23;96407.56;;;8.01;68.27
21944;BME280;11136;48.778;9.126;2023-12-22T06:21:50;96409.41;;;8.22;67.51
21944;BME280;11136;48.778;9.126;2023-12-22T06:24:15;96420.06;;;8.16;67.99
21944;BME280;11136;48.778;9.126;2023-12-22T06:26:41;96352.81;;;7.70;67.50
21944;BME280;11136;48.778;9.126;2023-12-22T06:29:06;96273.53;;;7.25;67.40
21944;BME280;11136;48.778;9.126;2023-12-22T06:31:32;96435.53;;;8.26;66.91
21944;BME280;11136;48.778;9.126;2023-12-22T06:33:57;96445.16;;;8.22;67.34
21944;BME280;11136;48.778;9.126;2023-12-22T06:36:27;96302.06;;;7.30;67.74
21944;BME280;11136;48.778;9.126;2023-12-22T06:38:53;96447.00;;;8.20;67.60
21944;BME280;11136;48.778;9.126;2023-12-22T06:41:21;96473.50;;;8.30;67.49
21944;BME280;11136;48.778;9.126;2023-12-22T06:43:46;96335.53;;;7.49;67.37
21944;BME280;11136;48.778;9.126;2023-12-22T06:46:19;96394.44;;;7.94;67.23
21944;BME280;11136;48.778;9.126;2023-12-22T06:48:45;96436.81;;;8.32;66.61
21944;BME280;11136;48.778;9.126;2023-12-22T06:53:46;96253.53;;;6.95;66.78
21944;BME280;11136;48.778;9.126;2023-12-22T06:56:33;96416.75;;;8.03;66.33
21944;BME280;11136;48.778;9.126;2023-12-22T06:58:59;96466.34;;;8.36;66.44
21944;BME280;11136;48.778;9.126;2023-12-22T07:01:29;96445.78;;;8.13;66.34
21944;BME280;11136;48.778;9.126;2023-12-22T07:03:54;96421.72;;;7.57;67.21
21944;BME280;11136;48.778;9.126;2023-12-22T07:06:21;96099.31;;;5.94;67.88
21944;BME280;11136;48.778;9.126;2023-12-22T07:08:57;96482.09;;;8.29;67.51
21944;BME280;11136;48.778;9.126;2023-12-22T07:11:23;96410.63;;;7.82;68.47
21944;BME280;11136;48.778;9.126;2023-12-22T07:13:48;96245.84;;;6.71;68.12
21944;BME280;11136;48.778;9.126;2023-12-22T07:16:14;96350.00;;;7.25;68.37
21944;BME280;11136;48.778;9.126;2023-12-22T07:18:40;96513.44;;;8.32;67.95
21944;BME280;11136;48.778;9.126;2023-12-22T07:21:05;96459.94;;;8.06;68.87
21944;BME280;11136;48.778;9.126;2023-12-22T07:23:30;96496.72;;;8.27;68.51
21944;BME280;11136;48.778;9.126;2023-12-22T07:25:55;96503.78;;;8.24;68.97
21944;BME280;11136;48.778;9.126;2023-12-22T07:28:21;95923.06;;;4.03;69.53
21944;BME280;11136;48.778;9.126;2023-12-22T07:30:46;96511.75;;;8.19;69.52
21944;BME280;11136;48.778;9.126;2023-12-22T07:33:11;96435.81;;;7.50;68.96
21944;BME280;11136;48.778;9.126;2023-12-22T07:35:36;96259.34;;;6.48;69.38
21944;BME280;11136;48.778;9.126;2023-12-22T07:38:02;96420.31;;;7.40;69.52
21944;BME280;11136;48.778;9.126;2023-12-22T07:40:28;96361.63;;;7.16;69.77
21944;BME280;11136;48.778;9.126;2023-12-22T07:42:56;96205.41;;;6.17;69.88
21944;BME280;11136;48.778;9.126;2023-12-22T07:45:21;96405.09;;;7.51;69.25
21944;BME280;11136;48.778;9.126;2023-12-22T07:47:46;96345.53;;;7.16;69.94
21944;BME280;11136;48.778;9.126;2023-12-22T07:50:12;96426.34;;;7.39;69.95
21944;BME280;11136;48.778;9.126;2023-12-22T07:52:37;96512.47;;;8.21;69.88
21944;BME280;11136;48.778;9.126;2023-12-22T07:55:08;96399.34;;;7.24;70.00
21944;BME280;11136;48.778;9.126;2023-12-22T07:57:37;96404.19;;;7.52;69.95
21944;BME280;11136;48.778;9.126;2023-12-22T08:00:03;96351.66;;;7.13;70.68
21944;BME280;11136;48.778;9.126;2023-12-22T08:02:29;96417.28;;;7.35;71.06
21944;BME280;11136;48.778;9.126;2023-12-22T08:04:54;96310.16;;;6.62;71.54
21944;BME280;11136;48.778;9.126;2023-12-22T08:07:20;96545.41;;;8.01;71.96
21944;BME280;11136;48.778;9.126;2023-12-22T08:09:45;96525.31;;;7.96;71.65
21944;BME280;11136;48.778;9.126;2023-12-22T08:12:10;96233.28;;;6.06;71.88
21944;BME280;11136;48.778;9.126;2023-12-22T08:14:35;96279.00;;;6.45;72.31
21944;BME280;11136;48.778;9.126;2023-12-22T08:17:01;96515.31;;;7.93;72.77
21944;BME280;11136;48.778;9.126;2023-12-22T08:19:26;96518.59;;;7.95;72.69
21944;BME280;11136;48.778;9.126;2023-12-22T08:21:55;96436.47;;;7.28;73.75
21944;BME280;11136;48.778;9.126;2023-12-22T08:24:21;96249.06;;;6.11;73.74
21944;BME280;11136;48.778;9.126;2023-12-22T08:26:46;96233.84;;;5.71;74.05
21944;BME280;11136;48.778;9.126;2023-12-22T08:29:11;96520.44;;;7.67;74.76
21944;BME280;11136;48.778;9.126;2023-12-22T08:31:37;96437.28;;;7.16;75.01
21944;BME280;11136;48.778;9.126;2023-12-22T08:34:02;96434.22;;;7.11;75.60
21944;BME280;11136;48.778;9.126;2023-12-22T08:36:27;96495.56;;;7.58;76.36
21944;BME280;11136;48.778;9.126;2023-12-22T08:38:53;96379.50;;;6.53;75.94
21944;BME280;11136;48.778;9.126;2023-12-22T08:41:18;96486.22;;;7.21;75.34
21944;BME280;11136;48.778;9.126;2023-12-22T08:43:43;96476.53;;;7.38;76.13
21944;BME280;11136;48.778;9.126;2023-12-22T08:46:09;96383.09;;;6.63;75.95
21944;BME280;11136;48.778;9.126;2023-12-22T08:48:35;96319.72;;;6.45;75.65
21944;BME280;11136;48.778;9.126;2023-12-22T08:51:00;96382.56;;;6.70;75.69
21944;BME280;11136;48.778;9.126;2023-12-22T08:53:25;96285.63;;;6.35;75.97
21944;BME280;11136;48.778;9.126;2023-12-22T08:55:51;96504.16;;;7.70;75.17
21944;BME280;11136;48.778;9.126;2023-12-22T08:58:17;96510.06;;;7.71;75.19
21944;BME280;11136;48.778;9.126;2023-12-22T09:00:42;96400.38;;;6.96;74.87
21944;BME280;11136;48.778;9.126;2023-12-22T09:03:08;96305.47;;;6.43;75.75
21944;BME280;11136;48.778;9.126;2023-12-22T09:05:33;96259.38;;;5.82;74.80
21944;BME280;11136;48.778;9.126;2023-12-22T09:07:58;96535.44;;;7.85;74.87
21944;BME280;11136;48.778;9.126;2023-12-22T09:10:23;96414.88;;;6.95;74.68
21944;BME280;11136;48.778;9.126;2023-12-22T09:12:49;96484.13;;;7.64;74.57
21944;BME280;11136;48.778;9.126;2023-12-22T09:15:14;96535.75;;;7.93;74.43
21944;BME280;11136;48.778;9.126;2023-12-22T09:17:41;96333.38;;;6.44;73.69
21944;BME280;11136;48.778;9.126;2023-12-22T09:20:07;96531.03;;;7.99;73.61
21944;BME280;11136;48.778;9.126;2023-12-22T09:22:32;96537.16;;;7.97;73.18
21944;BME280;11136;48.778;9.126;2023-12-22T09:24:58;96543.25;;;8.07;73.23
21944;BME280;11136;48.778;9.126;2023-12-22T09:27:23;96391.63;;;7.13;71.82
21944;BME280;11136;48.778;9.126;2023-12-22T09:29:48;96469.03;;;7.61;71.59
21944;BME280;11136;48.778;9.126;2023-12-22T09:32:14;96467.63;;;7.70;72.21
21944;BME280;11136;48.778;9.126;2023-12-22T09:34:39;96217.72;;;6.23;71.09
21944;BME280;11136;48.778;9.126;2023-12-22T09:37:05;96525.69;;;8.03;70.55
21944;BME280;11136;48.778;9.126;2023-12-22T09:39:30;96356.25;;;6.95;70.00
21944;BME280;11136;48.778;9.126;2023-12-22T09:41:56;96480.97;;;7.73;70.77
21944;BME280;11136;48.778;9.126;2023-12-22T09:44:21;96559.91;;;8.37;70.12
21944;BME280;11136;48.778;9.126;2023-12-22T09:46:50;96539.75;;;8.21;69.09
21944;BME280;11136;48.778;9.126;2023-12-22T09:49:20;96452.50;;;7.66;69.59
21944;BME280;11136;48.778;9.126;2023-12-22T09:51:49;96465.75;;;7.72;69.83
21944;BME280;11136;48.778;9.126;2023-12-22T09:54:14;96581.13;;;8.50;69.36
21944;BME280;11136;48.778;9.126;2023-12-22T09:56:40;96394.22;;;7.24;69.12
21944;BME280;11136;48.778;9.126;2023-12-22T09:59:11;96571.50;;;8.53;69.16
21944;BME280;11136;48.778;9.126;2023-12-22T10:01:44;96565.59;;;8.53;69.32
21944;BME280;11136;48.778;9.126;2023-12-22T10:04:11;96385.69;;;7.25;68.39
21944;BME280;11136;48.778;9.126;2023-12-22T10:06:36;96426.44;;;7.37;68.67
21944;BME280;11136;48.778;9.126;2023-12-22T10:09:02;96414.16;;;7.55;68.85
21944;BME280;11136;48.778;9.126;2023-12-22T10:11:32;96523.47;;;8.35;68.00
21944;BME280;11136;48.778;9.126;2023-12-22T10:13:59;96452.38;;;7.81;68.72
21944;BME280;11136;48.778;9.126;2023-12-22T10:16:25;96439.06;;;7.88;68.66
21944;BME280;11136;48.778;9.126;2023-12-22T10:18:51;96478.13;;;8.25;67.98
21944;BME280;11136;48.778;9.126;2023-12-22T10:21:17;96375.56;;;7.73;68.29
21944;BME280;11136;48.778;9.126;2023-12-22T10:23:42;96383.03;;;7.87;68.65
21944;BME280;11136;48.778;9.126;2023-12-22T10:26:11;96432.88;;;7.80;67.89
21944;BME280;11136;48.778;9.126;2023-12-22T10:28:36;96550.13;;;8.78;67.85
21944;BME280;11136;48.778;9.126;2023-12-22T10:31:02;96445.16;;;8.22;68.04
21944;BME280;11136;48.778;9.126;2023-12-22T10:33:31;96517.63;;;8.80;67.75
21944;BME280;11136;48.778;9.126;2023-12-22T10:35:56;96424.41;;;8.03;67.65
21944;BME280;11136;48.778;9.126;2023-12-22T10:38:23;96366.91;;;7.86;67.77
21944;BME280;11136;48.778;9.126;2023-12-22T10:40:49;96253.22;;;6.99;68.15
21944;BME280;11136;48.778;9.126;2023-12-22T10:43:15;96386.06;;;7.92;68.79
21944;BME280;11136;48.778;9.126;2023-12-22T10:45:41;96241.16;;;7.01;68.88
21944;BME280;11136;48.778;9.126;2023-12-22T10:48:06;96384.56;;;7.29;68.94
21944;BME280;11136;48.778;9.126;2023-12-22T10:50:32;96450.28;;;8.46;68.68
21944;BME280;11136;48.778;9.126;2023-12-22T10:52:57;96143.72;;;6.63;69.29
21944;BME280;11136;48.778;9.126;2023-12-22T10:55:23;96503.78;;;8.72;69.34
21944;BME280;11136;48.778;9.126;2023-12-22T10:57:48;96479.25;;;8.69;70.11
21944;BME280;11136;48.778;9.126;2023-12-22T11:00:15;96423.34;;;8.18;70.49
21944;BME280;11136;48.778;9.126;2023-12-22T11:02:43;96484.59;;;8.66;70.35
21944;BME280;11136;48.778;9.126;2023-12-22T11:05:10;96470.09;;;8.67;70.97
21944;BME280;11136;48.778;9.126;2023-12-22T11:07:37;96285.88;;;6.69;70.70
21944;BME280;11136;48.778;9.126;2023-12-22T11:10:05;96316.53;;;7.29;71.00
21944;BME280;11136;48.778;9.126;2023-12-22T11:12:35;96466.53;;;8.33;71.46
21944;BME280;11136;48.778;9.126;2023-12-22T11:15:02;96391.31;;;7.54;72.05
21944;BME280;11136;48.778;9.126;2023-12-22T11:17:32;96506.84;;;8.53;72.06
21944;BME280;11136;48.778;9.126;2023-12-22T11:19:58;96326.47;;;7.45;72.74
21944;BME280;11136;48.778;9.126;2023-12-22T11:22:23;96303.50;;;7.21;73.02
21944;BME280;11136;48.778;9.126;2023-12-22T11:24:49;96284.78;;;7.10;73.83
21944;BME280;11136;48.778;9.126;2023-12-22T11:27:18;96380.75;;;7.71;73.92
21944;BME280;11136;48.778;9.126;2023-12-22T11:29:47;96469.41;;;8.17;74.86
21944;BME280;11136;48.778;9.126;2023-12-22T11:32:15;96285.25;;;6.91;74.71
21944;BME280;11136;48.778;9.126;2023-12-22T11:34:42;96355.88;;;7.38;75.57
21944;BME280;11136;48.778;9.126;2023-12-22T11:37:08;96412.91;;;7.74;75.88
21944;BME280;11136;48.778;9.126;2023-12-22T11:39:34;96149.16;;;5.96;75.58
21944;BME280;11136;48.778;9.126;2023-12-22T11:42:01;96295.91;;;6.59;76.31
21944;BME280;11136;48.778;9.126;2023-12-22T11:44:28;96363.47;;;7.27;76.45
21944;BME280;11136;48.778;9.126;2023-12-22T11:47:08;96302.75;;;6.95;76.02
21944;BME280;11136;48.778;9.126;2023-12-22T11:49:35;96427.19;;;8.00;76.11
21944;BME280;11136;48.778;9.126;2023-12-22T11:52:16;96297.56;;;6.97;77.26
21944;BME280;11136;48.778;9.126;2023-12-22T11:54:49;96415.06;;;7.91;76.79
21944;BME280;11136;48.778;9.126;2023-12-22T11:59:52;96277.63;;;7.15;77.57
21944;BME280;11136;48.778;9.126;2023-12-22T12:02:17;96388.31;;;7.96;77.00
21944;BME280;11136;48.778;9.126;2023-12-22T12:04:42;96203.84;;;6.76;77.07
21944;BME280;11136;48.778;9.126;2023-12-22T12:07:43;96384.59;;;8.01;76.96
21944;BME280;11136;48.778;9.126;2023-12-22T12:13:10;96329.53;;;7.74;77.16
21944;BME280;11136;48.778;9.126;2023-12-22T12:15:37;96363.75;;;8.07;76.75
21944;BME280;11136;48.778;9.126;2023-12-22T12:18:03;96241.25;;;7.13;76.35
21944;BME280;11136;48.778;9.126;2023-12-22T12:20:28;96291.59;;;7.70;77.11
21944;BME280;11136;48.778;9.126;2023-12-22T12:22:54;96366.00;;;8.22;76.57
21944;BME280;11136;48.778;9.126;2023-12-22T12:25:22;96151.91;;;6.79;76.59
21944;BME280;11136;48.778;9.126;2023-12-22T12:27:50;96311.50;;;7.64;76.59
21944;BME280;11136;48.778;9.126;2023-12-22T12:30:25;96332.22;;;7.84;76.42
21944;BME280;11136;48.778;9.126;2023-12-22T12:32:51;96289.75;;;7.72;76.47
21944;BME280;11136;48.778;9.126;2023-12-22T12:35:18;96025.06;;;6.12;76.74
21944;BME280;11136;48.778;9.126;2023-12-22T12:37:44;96343.25;;;8.19;76.43
21944;BME280;11136;48.778;9.126;2023-12-22T12:40:11;96196.63;;;7.07;76.66
21944;BME280;11136;48.778;9.126;2023-12-22T12:42:36;96198.28;;;7.19;76.87
21944;BME280;11136;48.778;9.126;2023-12-22T12:45:04;96240.78;;;7.43;77.33
21944;BME280;11136;48.778;9.126;2023-12-22T12:47:30;96213.56;;;7.43;77.04
21944;BME280;11136;48.778;9.126;2023-12-22T12:49:57;96337.13;;;8.22;76.78
21944;BME280;11136;48.778;9.126;2023-12-22T12:52:23;96282.91;;;7.72;77.04
21944;BME280;11136;48.778;9.126;2023-12-22T12:54:50;96339.31;;;8.26;76.88
21944;BME280;11136;48.778;9.126;2023-12-22T12:57:16;96339.44;;;8.25;76.98
21944;BME280;11136;48.778;9.126;2023-12-22T12:59:45;96191.50;;;7.31;77.41
21944;BME280;11136;48.778;9.126;2023-12-22T13:02:11;96291.47;;;7.71;77.56
21944;BME280;11136;48.778;9.126;2023-12-22T13:04:37;96273.28;;;7.76;77.13
21944;BME280;11136;48.778;9.126;2023-12-22T13:07:03;96085.41;;;6.71;77.33
21944;BME280;11136;48.778;9.126;2023-12-22T13:09:32;95995.84;;;6.18;77.06
21944;BME280;11136;48.778;9.126;2023-12-22T13:11:59;96265.06;;;7.83;77.35